createdAt,value
2018-07-10T00:00:57.025Z,27.00
2018-07-10T00:04:17.163Z,27.00
2018-07-10T00:12:00.689Z,26.90
2018-07-10T00:14:38.991Z,26.80
2018-07-10T00:17:16.503Z,26.90
2018-07-10T00:19:53.783Z,26.00
2018-07-10T00:22:31.139Z,27.10
2018-07-10T00:25:08.240Z,27.00
2018-07-10T00:27:45.692Z,26.90
2018-07-10T00:30:23.584Z,26.90
2018-07-10T00:33:01.203Z,27.00
2018-07-10T00:35:37.853Z,27.00
2018-07-10T00:38:25.506Z,26.90
2018-07-10T00:41:02.997Z,26.80
2018-07-10T00:43:40.460Z,26.90
2018-07-10T00:46:17.364Z,26.70
2018-07-10T00:48:53.985Z,26.60
2018-07-10T00:51:31.921Z,26.70
2018-07-10T00:54:09.072Z,26.70
2018-07-10T00:56:46.441Z,26.80
2018-07-10T00:59:23.014Z,26.70
2018-07-10T01:02:00.431Z,26.60
2018-07-10T01:04:38.609Z,26.60
2018-07-10T01:07:15.221Z,26.60
2018-07-10T01:09:52.103Z,26.60
2018-07-10T01:15:05.880Z,26.70
2018-07-10T01:17:43.472Z,26.70
2018-07-10T01:20:20.871Z,26.70
2018-07-10T01:22:58.078Z,26.60
2018-07-10T01:25:35.151Z,26.60
2018-07-10T01:30:48.806Z,26.60
2018-07-10T01:33:26.232Z,26.40
2018-07-10T01:36:05.521Z,26.40
2018-07-10T01:38:42.067Z,26.40
2018-07-10T01:41:19.026Z,26.50
2018-07-10T01:43:55.861Z,26.50
2018-07-10T01:46:33.930Z,26.40
2018-07-10T01:49:11.579Z,26.40
2018-07-10T01:51:48.996Z,26.40
2018-07-10T01:54:26.554Z,26.40
2018-07-10T01:57:03.329Z,26.40
2018-07-10T01:59:40.146Z,26.40
2018-07-10T02:02:16.860Z,26.40
2018-07-10T02:04:54.719Z,26.40
2018-07-10T02:12:47.003Z,26.40
2018-07-10T02:15:24.470Z,26.30
2018-07-10T02:18:02.209Z,26.30
2018-07-10T02:23:21.306Z,26.20
2018-07-10T02:25:58.581Z,26.20
2018-07-10T02:28:36.311Z,26.30
2018-07-10T02:33:50.623Z,26.20
2018-07-10T02:41:42.013Z,26.10
2018-07-10T02:44:19.227Z,26.20
2018-07-10T02:46:55.943Z,26.10
2018-07-10T02:49:32.870Z,26.00
2018-07-10T02:52:10.702Z,25.90
2018-07-10T02:54:48.134Z,26.00
2018-07-10T02:57:25.679Z,25.90
2018-07-10T03:00:02.753Z,25.90
2018-07-10T03:02:39.710Z,25.80
2018-07-10T03:05:16.538Z,25.80
2018-07-10T03:13:07.233Z,25.70
2018-07-10T03:15:45.194Z,25.70
2018-07-10T03:18:23.361Z,25.80
2018-07-10T03:21:00.741Z,25.60
2018-07-10T03:23:37.371Z,25.60
2018-07-10T03:26:14.376Z,25.90
2018-07-10T03:28:51.459Z,25.90
2018-07-10T03:31:28.147Z,26.00
2018-07-10T03:34:05.405Z,26.00
2018-07-10T03:36:43.436Z,26.00
2018-07-10T03:39:21.213Z,26.10
2018-07-10T03:41:59.522Z,26.10
2018-07-10T03:44:36.434Z,25.80
2018-07-10T03:47:15.486Z,25.80
2018-07-10T03:49:53.201Z,25.70
2018-07-10T03:52:34.942Z,25.60
2018-07-10T03:55:16.212Z,25.60
2018-07-10T03:57:57.819Z,25.50
2018-07-10T04:00:36.946Z,25.60
2018-07-10T04:03:14.387Z,25.70
2018-07-10T04:05:52.384Z,25.70
2018-07-10T04:08:30.049Z,25.80
2018-07-10T04:11:07.493Z,25.80
2018-07-10T04:13:44.234Z,25.80
2018-07-10T04:16:20.934Z,25.80
2018-07-10T04:18:58.223Z,25.80
2018-07-10T04:21:35.859Z,25.80
2018-07-10T04:24:19.042Z,25.80
2018-07-10T04:27:34.549Z,25.90
2018-07-10T04:30:18.628Z,25.80
2018-07-10T04:35:32.505Z,25.90
2018-07-10T04:38:13.298Z,25.70
2018-07-10T04:43:30.150Z,25.50
2018-07-10T04:48:46.466Z,25.50
2018-07-10T04:51:34.106Z,25.50
2018-07-10T04:54:23.783Z,25.60
2018-07-10T04:57:14.863Z,25.70
2018-07-10T04:59:52.514Z,25.70
2018-07-10T05:02:29.553Z,25.70
2018-07-10T05:05:06.961Z,25.80
2018-07-10T05:07:45.203Z,25.80
2018-07-10T05:13:01.968Z,26.00
2018-07-10T05:15:40.571Z,26.10
2018-07-10T05:18:17.399Z,25.90
2018-07-10T05:20:54.687Z,25.80
2018-07-10T05:26:09.815Z,25.80
2018-07-10T05:28:54.086Z,25.80
2018-07-10T05:31:32.138Z,25.80
2018-07-10T05:34:08.972Z,25.80
2018-07-10T05:36:46.125Z,25.80
2018-07-10T05:39:24.228Z,25.90
2018-07-10T05:42:01.674Z,26.00
2018-07-10T05:44:38.442Z,26.00
2018-07-10T05:47:15.264Z,26.00
2018-07-10T05:52:29.114Z,26.00
2018-07-10T05:55:05.920Z,26.20
2018-07-10T05:57:42.615Z,26.20
2018-07-10T06:00:21.144Z,26.30
2018-07-10T06:02:59.525Z,26.30
2018-07-10T06:05:36.459Z,26.40
2018-07-10T06:08:14.249Z,26.60
2018-07-10T06:10:51.036Z,26.80
2018-07-10T06:16:04.513Z,26.90
2018-07-10T06:21:19.782Z,26.90
2018-07-10T06:29:13.405Z,26.90
2018-07-10T06:31:53.736Z,26.80
2018-07-10T06:34:37.909Z,26.60
2018-07-10T06:37:18.868Z,26.60
2018-07-10T06:39:56.946Z,26.60
2018-07-10T06:43:45.094Z,26.70
2018-07-10T06:46:30.072Z,26.80
2018-07-10T06:49:18.259Z,26.80
2018-07-10T06:52:17.458Z,27.00
2018-07-10T06:55:08.571Z,27.20
2018-07-10T06:57:50.093Z,27.20
2018-07-10T07:00:27.811Z,27.20
2018-07-10T07:03:04.890Z,27.20
2018-07-10T07:05:42.733Z,27.30
2018-07-10T07:08:22.130Z,27.20
2018-07-10T07:13:37.547Z,27.20
2018-07-10T07:16:14.772Z,27.30
2018-07-10T07:18:52.918Z,27.50
2018-07-10T07:21:30.229Z,27.70
2018-07-10T07:26:43.886Z,27.90
2018-07-10T07:29:21.200Z,28.40
2018-07-10T07:34:35.455Z,29.80
2018-07-10T07:37:14.018Z,30.80
2018-07-10T07:39:50.869Z,31.20
2018-07-10T07:45:06.009Z,31.40
2018-07-10T07:47:43.062Z,31.90
2018-07-10T07:50:22.705Z,31.90
2018-07-10T07:55:37.168Z,34.40
2018-07-10T07:58:14.807Z,34.50
2018-07-10T08:00:52.311Z,35.10
2018-07-10T08:03:30.918Z,34.20
2018-07-10T08:06:08.962Z,33.90
2018-07-10T08:08:46.040Z,34.00
2018-07-10T08:11:23.941Z,33.90
2018-07-10T08:14:01.475Z,36.00
2018-07-10T08:16:38.486Z,36.20
2018-07-10T08:19:17.395Z,36.50
2018-07-10T08:24:32.308Z,35.90
2018-07-10T08:27:09.901Z,35.70
2018-07-10T08:35:01.096Z,34.90
2018-07-10T08:37:38.251Z,35.20
2018-07-10T08:40:15.194Z,34.80
2018-07-10T08:42:52.989Z,35.70
2018-07-10T08:45:30.702Z,35.50
2018-07-10T08:48:07.664Z,36.10
2018-07-10T08:50:45.472Z,35.80
2018-07-10T08:53:26.419Z,35.20
2018-07-10T08:56:04.229Z,35.40
2018-07-10T08:58:41.763Z,37.30
2018-07-10T09:01:19.368Z,37.40
2018-07-10T09:03:56.200Z,37.60
2018-07-10T09:06:33.940Z,37.90
2018-07-10T09:09:10.721Z,38.20
2018-07-10T09:11:47.702Z,38.40
2018-07-10T09:14:27.226Z,37.00
2018-07-10T09:17:05.094Z,35.70
2018-07-10T09:19:42.371Z,37.20
2018-07-10T09:24:57.899Z,37.70
2018-07-10T09:27:35.249Z,37.20
2018-07-10T09:38:25.190Z,37.00
2018-07-10T09:41:05.044Z,37.30
2018-07-10T09:43:45.071Z,34.40
2018-07-10T09:46:22.567Z,37.40
2018-07-10T09:56:49.827Z,35.60
2018-07-10T10:04:45.198Z,37.10
2018-07-10T10:10:13.460Z,36.50
2018-07-10T10:18:09.926Z,36.90
2018-07-10T10:23:24.183Z,37.00
2018-07-10T10:26:01.893Z,37.30
2018-07-10T10:28:40.246Z,36.80
2018-07-10T10:31:17.325Z,37.10
2018-07-10T10:33:54.320Z,37.90
2018-07-10T10:36:32.122Z,37.80
2018-07-10T10:39:10.117Z,38.70
2018-07-10T10:41:47.650Z,38.70
2018-07-10T10:44:25.951Z,38.60
2018-07-10T10:47:03.632Z,39.10
2018-07-10T10:49:40.482Z,39.60
2018-07-10T10:52:18.753Z,39.00
2018-07-10T10:54:56.396Z,39.00
2018-07-10T10:57:38.849Z,38.20
2018-07-10T11:00:16.178Z,38.20
2018-07-10T11:02:53.702Z,38.20
2018-07-10T11:05:31.282Z,38.20
2018-07-10T11:08:10.619Z,38.30
2018-07-10T11:10:48.329Z,37.90
2018-07-10T11:13:25.510Z,38.50
2018-07-10T11:16:02.393Z,38.60
2018-07-10T11:19:00.995Z,38.80
2018-07-10T11:21:45.792Z,38.30
2018-07-10T11:24:23.136Z,39.60
2018-07-10T11:27:00.036Z,38.60
2018-07-10T11:29:36.943Z,38.60
2018-07-10T11:32:15.032Z,38.50
2018-07-10T11:34:52.736Z,37.90
2018-07-10T11:37:30.556Z,38.70
2018-07-10T11:40:07.554Z,39.00
2018-07-10T11:42:46.225Z,39.00
2018-07-10T11:45:23.107Z,39.20
2018-07-10T11:48:00.474Z,39.20
2018-07-10T11:50:38.089Z,38.10
2018-07-10T11:53:15.948Z,38.00
2018-07-10T11:58:51.929Z,39.10
2018-07-10T12:01:29.381Z,37.20
2018-07-10T12:04:06.602Z,37.30
2018-07-10T12:06:51.673Z,37.90
2018-07-10T12:09:30.603Z,38.00
2018-07-10T12:12:08.736Z,38.80
2018-07-10T12:14:46.480Z,38.70
2018-07-10T12:17:23.297Z,38.60
2018-07-10T12:20:00.529Z,38.10
2018-07-10T12:25:16.232Z,36.40
2018-07-10T12:27:53.827Z,38.40
2018-07-10T12:30:31.387Z,38.60
2018-07-10T12:33:09.275Z,38.80
2018-07-10T12:35:47.446Z,37.60
2018-07-10T12:38:25.034Z,39.00
2018-07-10T12:41:02.673Z,38.90
2018-07-10T12:43:40.351Z,38.10
2018-07-10T12:46:18.160Z,38.30
2018-07-10T12:48:55.246Z,38.50
2018-07-10T12:51:32.824Z,38.60
2018-07-10T12:54:09.827Z,39.20
2018-07-10T12:56:47.722Z,39.20
2018-07-10T12:59:25.446Z,38.40
2018-07-10T13:09:53.681Z,35.30
2018-07-10T13:25:36.362Z,32.10
2018-07-10T13:30:49.447Z,32.10
2018-07-10T13:49:07.881Z,32.30
2018-07-10T14:10:02.330Z,32.00
2018-07-10T14:17:53.988Z,32.60
2018-07-10T14:25:54.262Z,32.10
2018-07-10T14:31:08.762Z,32.40
2018-07-10T14:39:00.379Z,32.10
2018-07-10T15:02:32.378Z,31.80
2018-07-10T15:23:32.423Z,31.40
2018-07-10T15:26:09.463Z,30.90
2018-07-10T15:36:36.782Z,30.50
2018-07-10T15:39:14.450Z,30.60
2018-07-10T15:44:30.548Z,30.50
2018-07-10T15:52:21.970Z,30.60
2018-07-10T16:02:51.116Z,30.50
2018-07-10T16:10:58.374Z,30.50
2018-07-10T16:18:58.518Z,30.30
2018-07-10T16:37:23.272Z,29.90
2018-07-10T17:16:40.009Z,29.30
2018-07-10T17:29:46.413Z,29.10
2018-07-10T17:45:33.270Z,28.90
2018-07-10T18:22:41.481Z,28.60
2018-07-10T18:33:09.768Z,28.30
2018-07-10T18:41:01.195Z,28.20
2018-07-10T18:43:39.834Z,28.10
2018-07-10T18:46:17.586Z,28.30
2018-07-10T19:04:51.799Z,28.10
2018-07-10T19:10:05.883Z,27.90
2018-07-10T19:12:44.607Z,27.80
2018-07-10T19:20:38.501Z,27.80
2018-07-10T19:23:31.446Z,27.60
2018-07-10T19:26:08.876Z,27.50
2018-07-10T19:36:38.589Z,27.60
2018-07-10T19:44:30.978Z,27.60
2018-07-10T20:08:05.167Z,27.60
2018-07-10T20:10:47.856Z,27.50
2018-07-10T20:16:12.748Z,27.40
2018-07-10T20:21:43.363Z,27.30
2018-07-10T20:27:05.462Z,27.20
2018-07-10T20:51:33.100Z,27.10
2018-07-10T20:57:06.207Z,27.00
2018-07-10T21:02:27.340Z,27.10
2018-07-10T21:10:40.519Z,27.10
2018-07-10T21:13:58.757Z,27.00
2018-07-10T21:22:19.978Z,26.90
2018-07-10T21:35:56.535Z,26.90
2018-07-10T21:50:30.512Z,26.80
2018-07-10T21:55:45.645Z,26.80
2018-07-10T22:04:42.820Z,26.70
2018-07-10T22:10:05.755Z,26.70
2018-07-10T22:18:04.376Z,27.00
2018-07-10T22:23:18.760Z,26.90
2018-07-10T22:36:28.000Z,26.70
2018-07-10T22:41:48.041Z,26.70
2018-07-10T22:44:27.802Z,26.70
2018-07-10T22:47:06.195Z,26.70
2018-07-10T22:49:45.102Z,26.50
2018-07-10T22:55:00.566Z,26.70
2018-07-10T22:57:38.209Z,26.60
2018-07-10T23:00:25.789Z,26.50
2018-07-10T23:03:18.719Z,26.40
2018-07-10T23:05:56.168Z,26.40
2018-07-10T23:19:03.743Z,26.60
2018-07-10T23:26:55.235Z,26.60
2018-07-10T23:29:36.678Z,26.60
2018-07-10T23:32:13.691Z,26.50
2018-07-10T23:34:50.434Z,26.50
2018-07-10T23:37:27.458Z,26.80
2018-07-10T23:42:41.882Z,26.60
2018-07-10T23:45:24.555Z,26.50
